Cenes de la Vega, Spain
Current Conditions -  °F | °C
As of 5:30 PM on Saturday 22 Nov 2014 (Local Time) from LEGR Reporting Station
Scattered Clouds Scattered Clouds  
Wind Chill: 73°   Ceiling: Unl
Heat Index: 73°   Visibility: 6mi
Dew Point: 36°   Wind: 16mph
Humidity: 25%   Direction: 190°S
Pressure: 29.8"   Gusts: NA
Location:  37.16°N, 3.54°W
Report Text: LEGR 221630Z 19014KT 160V230 9999 SCT025 23/02 Q1009
Loading
Personal Weather Stations






























Interactive Weather Map New forecast layout! Learn more

10-Day Weather Forecast

Advertisements
Track Severe Weather on mobile